Impacts TAF Board
For situational awareness. Not to be used for flight planning purposes.
IDs:

KCLT - Charlotte/Douglas In, NC, US

Issued at 1225 UTC 21 Sep 2018
Updated at 1233 UTC 21 Sep 2018
Potential Impact None Slight Moderate High
Time1223Z 21/13Z 21/14Z 21/15Z 21/16Z 21/17Z 21/18Z 21/19Z 21/20Z 21/21Z 21/22Z 21/23Z 22/00Z 22/01Z>>
Type OBS PRVL
  [TEMP]  
PRVL
  [TEMP]  
PRVL PRVL PRVL PRVL PRVL PRVL PRVL PRVL PRVL PRVL PRVL
VIS 3 6
  [4]  
6
  [4]  
>6 >6 >6 >6 >6 >6 >6 >6 >6 >6 >6
CIG 16 30
  [60]  
30
  [60]  
-- -- -- -- -- -- -- -- -- -- --
Cover BKN BKN
  [BKN]  
BKN
  [BKN]  
SCT SCT SCT SCT SCT SCT SCT SCT SCT SCT SCT
FltCat MVFR MVFR
  [MVFR]  
MVFR
  [MVFR]  
VFR VFR VFR VFR VFR VFR VFR VFR VFR VFR VFR
WX BR BR
  [BR]  
BR
  [BR]  
-- -- -- -- -- -- -- -- -- -- --
WDir 310 190
[190]
190
[190]
200 200 200 200 200 200 200 200 200 200 200
WSpd 3 3
  [3]  
3
  [3]  
6 6 6 6 6 6 6 6 6 6 6
WGst -- --
  [--]  
--
  [--]  
-- -- -- -- -- -- -- -- -- -- --
Raw TAF
KCLT 211225Z 2112/2218 19003KT 6SM BR BKN030
  TEMPO 2112/2115 4SM BR SCT030 BKN060
  FM211500 20006KT P6SM SCT040
  FM221000 21003KT 6SM BR FEW180
  FM221400 22005KT P6SM FEW040


Raw METAR
KCLT 211223Z 31003KT 3SM BR SCT006 BKN016 BKN033 23/23 A3026 RMK AO2 T02330228
KCLT 211152Z 00000KT 4SM BR BKN033 BKN120 22/22 A3025 RMK AO2 SLP233 T02220222 10233 20217 53014
KCLT 211052Z 19004KT 6SM BR SCT031 BKN040 BKN120 22/22 A3023 RMK AO2 SLP227 T02220222
KCLT 211035Z 19004KT 6SM BR OVC030 23/22 A3023 RMK AO2 T02280222
KCLT 210952Z 19004KT 6SM BR OVC029 23/22 A3021 RMK AO2 SLP221 T02280222

METAR Board
Radar Display
Forecast Discussion
For situational awareness. Not to be used for flight planning purposes.